createdAt,value
2023-05-05T00:00:18.709Z,51.62
2023-05-05T00:03:07.505Z,50.93
2023-05-05T00:05:35.716Z,50.61
2023-05-05T00:08:04.052Z,49.63
2023-05-05T00:10:32.801Z,49.24
2023-05-05T00:13:02.206Z,48.61
2023-05-05T00:15:31.701Z,48.35
2023-05-05T00:18:00.498Z,48.02
2023-05-05T00:20:28.948Z,47.60
2023-05-05T00:22:58.456Z,46.89
2023-05-05T00:25:27.218Z,46.29
2023-05-05T00:27:55.816Z,46.03
2023-05-05T00:30:24.468Z,46.37
2023-05-05T00:32:52.679Z,46.50
2023-05-05T00:35:20.875Z,46.53
2023-05-05T00:37:49.508Z,46.88
2023-05-05T00:40:18.930Z,46.92
2023-05-05T00:42:48.165Z,46.89
2023-05-05T00:45:17.348Z,46.72
2023-05-05T00:47:47.985Z,45.95
2023-05-05T00:50:23.014Z,46.11
2023-05-05T00:52:52.758Z,45.95
2023-05-05T00:55:21.868Z,46.06
2023-05-05T00:57:50.844Z,46.23
2023-05-05T01:00:19.015Z,46.51
2023-05-05T01:02:47.408Z,46.77
2023-05-05T01:05:16.426Z,46.93
2023-05-05T01:07:48.611Z,47.34
2023-05-05T01:10:30.141Z,47.57
2023-05-05T01:13:11.771Z,47.60
2023-05-05T01:15:44.443Z,47.69
2023-05-05T01:18:24.130Z,47.71
2023-05-05T01:20:58.523Z,47.92
2023-05-05T01:23:45.239Z,48.07
2023-05-05T01:26:36.605Z,48.10
2023-05-05T01:29:08.250Z,48.36
2023-05-05T01:31:36.519Z,48.59
2023-05-05T01:34:06.803Z,48.81
2023-05-05T01:36:44.946Z,48.64
2023-05-05T01:39:16.314Z,48.83
2023-05-05T01:41:47.505Z,48.99
2023-05-05T01:44:17.032Z,49.40
2023-05-05T01:46:45.314Z,49.76
2023-05-05T01:49:14.024Z,50.16
2023-05-05T01:51:42.601Z,50.60
2023-05-05T01:54:10.960Z,50.98
2023-05-05T01:56:40.525Z,51.85
2023-05-05T01:59:10.817Z,52.57
2023-05-05T02:01:42.446Z,53.03
2023-05-05T02:04:14.693Z,53.73
2023-05-05T02:06:44.863Z,55.05
2023-05-05T02:09:17.187Z,55.07
2023-05-05T02:11:46.749Z,55.80
2023-05-05T02:14:17.231Z,56.22
2023-05-05T02:17:03.863Z,56.16
2023-05-05T02:19:39.374Z,57.35
2023-05-05T02:22:08.163Z,58.75
2023-05-05T02:24:37.991Z,58.63
2023-05-05T02:27:07.780Z,58.89
2023-05-05T02:29:38.416Z,59.00
2023-05-05T02:32:12.409Z,58.64
2023-05-05T02:34:41.716Z,58.41
2023-05-05T02:37:11.461Z,58.35
2023-05-05T02:39:51.885Z,58.90
2023-05-05T02:42:22.049Z,59.27
2023-05-05T02:44:51.810Z,59.54
2023-05-05T02:47:27.990Z,60.37
2023-05-05T02:49:58.796Z,60.56
2023-05-05T02:52:40.638Z,61.07
2023-05-05T02:55:09.335Z,61.41
2023-05-05T02:57:56.393Z,61.68
2023-05-05T03:00:30.344Z,61.70
2023-05-05T03:03:18.519Z,62.25
2023-05-05T03:06:07.040Z,63.20
2023-05-05T03:08:44.552Z,62.98
2023-05-05T03:11:24.762Z,63.70
2023-05-05T03:13:58.772Z,64.33
2023-05-05T03:16:28.564Z,64.17
2023-05-05T03:18:58.963Z,64.05
2023-05-05T03:21:27.848Z,63.75
2023-05-05T03:23:56.032Z,64.07
2023-05-05T03:26:24.864Z,64.27
2023-05-05T03:28:53.719Z,64.85
2023-05-05T03:31:21.846Z,64.87
2023-05-05T03:33:50.011Z,64.92
2023-05-05T03:36:18.231Z,64.98
2023-05-05T03:38:46.319Z,65.05
2023-05-05T03:41:14.403Z,64.81
2023-05-05T03:43:42.752Z,65.77
2023-05-05T03:46:11.035Z,66.05
2023-05-05T03:48:39.340Z,65.93
2023-05-05T03:51:07.730Z,65.71
2023-05-05T03:53:36.025Z,65.63
2023-05-05T03:56:04.155Z,65.58
2023-05-05T03:58:32.433Z,66.26
2023-05-05T04:01:00.652Z,65.92
2023-05-05T04:03:28.900Z,65.87
2023-05-05T04:05:57.233Z,66.06
2023-05-05T04:08:25.316Z,66.00
2023-05-05T04:10:53.383Z,66.52
2023-05-05T04:13:21.567Z,66.15
2023-05-05T04:15:49.777Z,65.92
2023-05-05T04:18:17.921Z,65.91
2023-05-05T04:20:46.911Z,65.65
2023-05-05T04:23:17.147Z,65.54
2023-05-05T04:25:45.269Z,65.41
2023-05-05T04:28:13.383Z,65.66
2023-05-05T04:30:41.480Z,65.74
2023-05-05T04:33:09.585Z,66.31
2023-05-05T04:35:41.315Z,66.23
2023-05-05T04:38:17.338Z,66.85
2023-05-05T04:40:48.422Z,66.16
2023-05-05T04:43:26.069Z,66.71
2023-05-05T04:45:57.128Z,66.82
2023-05-05T04:48:25.258Z,67.02
2023-05-05T04:50:53.405Z,66.99
2023-05-05T04:53:22.006Z,67.24
2023-05-05T04:55:50.940Z,67.55
2023-05-05T04:58:19.535Z,67.11
2023-05-05T05:00:49.056Z,67.30
2023-05-05T05:03:18.899Z,67.57
2023-05-05T05:05:47.133Z,67.70
2023-05-05T05:08:18.572Z,67.09
2023-05-05T05:10:46.698Z,67.52
2023-05-05T05:13:14.815Z,67.31
2023-05-05T05:15:43.112Z,67.13
2023-05-05T05:18:11.307Z,67.03
2023-05-05T05:20:39.391Z,67.28
2023-05-05T05:23:07.496Z,67.45
2023-05-05T05:25:35.688Z,67.57
2023-05-05T05:28:10.241Z,67.77
2023-05-05T05:30:38.837Z,67.75
2023-05-05T05:33:07.367Z,67.50
2023-05-05T05:35:35.550Z,67.63
2023-05-05T05:38:03.849Z,67.35
2023-05-05T05:40:32.444Z,67.99
2023-05-05T05:43:00.559Z,67.66
2023-05-05T05:45:28.913Z,67.94
2023-05-05T05:47:57.091Z,67.85
2023-05-05T05:50:27.400Z,68.10
2023-05-05T05:52:55.855Z,68.51
2023-05-05T05:55:24.445Z,68.16
2023-05-05T05:57:52.618Z,68.53
2023-05-05T06:00:21.463Z,68.33
2023-05-05T06:02:51.630Z,68.28
2023-05-05T06:05:20.718Z,68.22
2023-05-05T06:07:48.845Z,68.14
2023-05-05T06:10:27.471Z,68.39
2023-05-05T06:12:57.335Z,68.14
2023-05-05T06:15:26.089Z,67.66
2023-05-05T06:17:54.229Z,67.72
2023-05-05T06:20:22.482Z,67.55
2023-05-05T06:22:50.685Z,67.05
2023-05-05T06:25:18.847Z,67.07
2023-05-05T06:27:47.059Z,66.51
2023-05-05T06:30:15.237Z,65.96
2023-05-05T06:32:43.451Z,66.21
2023-05-05T06:35:11.962Z,65.94
2023-05-05T06:37:40.062Z,66.43
2023-05-05T06:40:09.129Z,66.64
2023-05-05T06:42:37.820Z,66.41
2023-05-05T06:45:06.469Z,66.06
2023-05-05T06:47:34.915Z,65.97
2023-05-05T06:50:04.060Z,65.74
2023-05-05T06:52:32.632Z,65.08
2023-05-05T06:55:00.734Z,64.37
2023-05-05T06:57:28.983Z,63.65
2023-05-05T06:59:57.145Z,63.70
2023-05-05T07:02:26.851Z,63.31
2023-05-05T07:04:55.730Z,63.13
2023-05-05T07:07:23.878Z,63.20
2023-05-05T07:09:51.945Z,63.22
2023-05-05T07:12:20.078Z,63.28
2023-05-05T07:14:48.259Z,63.51
2023-05-05T07:17:16.411Z,63.18
2023-05-05T07:19:44.659Z,62.74
2023-05-05T07:22:12.743Z,62.76
2023-05-05T07:24:40.944Z,62.70
2023-05-05T07:27:09.085Z,62.31
2023-05-05T07:29:37.216Z,62.25
2023-05-05T07:32:05.515Z,62.07
2023-05-05T07:34:34.826Z,62.05
2023-05-05T07:37:04.220Z,62.06
2023-05-05T07:39:33.001Z,62.06
2023-05-05T07:42:02.029Z,61.75
2023-05-05T07:44:30.720Z,60.95
2023-05-05T07:46:59.152Z,61.14
2023-05-05T07:49:27.393Z,60.33
2023-05-05T07:51:55.690Z,60.04
2023-05-05T07:54:23.841Z,59.85
2023-05-05T07:56:52.057Z,60.27
2023-05-05T07:59:20.166Z,59.78
2023-05-05T08:01:48.342Z,58.85
2023-05-05T08:04:16.558Z,58.87
2023-05-05T08:06:44.763Z,58.70
2023-05-05T08:09:12.928Z,58.03
2023-05-05T08:11:41.167Z,56.73
2023-05-05T08:14:09.591Z,57.63
2023-05-05T08:16:37.779Z,57.35
2023-05-05T08:19:14.584Z,56.70
2023-05-05T08:21:50.245Z,55.84
2023-05-05T08:24:18.395Z,55.47
2023-05-05T08:26:46.522Z,55.16
2023-05-05T08:29:14.641Z,55.15
2023-05-05T08:31:42.854Z,54.64
2023-05-05T08:34:11.055Z,54.20
2023-05-05T08:36:39.178Z,53.79
2023-05-05T08:39:07.462Z,54.67
2023-05-05T08:41:35.705Z,53.88
2023-05-05T08:44:03.829Z,53.21
2023-05-05T08:46:32.351Z,53.32
2023-05-05T08:49:01.987Z,52.91
2023-05-05T08:51:34.106Z,53.22
2023-05-05T08:54:07.199Z,53.79
2023-05-05T08:56:38.684Z,52.06
2023-05-05T08:59:07.103Z,52.11
2023-05-05T09:01:36.294Z,52.13
2023-05-05T09:04:04.684Z,52.71
2023-05-05T09:06:34.150Z,52.73
2023-05-05T09:09:02.790Z,51.92
2023-05-05T09:11:31.497Z,52.31
2023-05-05T09:16:45.070Z,51.08
2023-05-05T09:19:13.148Z,51.05
2023-05-05T09:21:49.076Z,51.46
2023-05-05T09:24:17.253Z,50.37
2023-05-05T09:26:48.288Z,51.18
2023-05-05T09:29:23.329Z,51.24
2023-05-05T09:32:08.807Z,51.89
2023-05-05T09:34:37.680Z,51.35
2023-05-05T09:37:06.538Z,50.54
2023-05-05T09:39:34.902Z,50.16
2023-05-05T09:42:03.371Z,49.53
2023-05-05T09:44:35.826Z,49.23
2023-05-05T09:47:09.553Z,49.79
2023-05-05T09:49:43.454Z,49.49
2023-05-05T09:52:13.171Z,48.81
2023-05-05T09:54:42.381Z,48.50
2023-05-05T09:57:25.749Z,49.03
2023-05-05T09:59:58.052Z,48.21
2023-05-05T10:02:33.375Z,49.30
2023-05-05T10:05:08.106Z,50.14
2023-05-05T10:07:37.364Z,50.08
2023-05-05T10:10:08.193Z,49.45
2023-05-05T10:12:39.610Z,49.40
2023-05-05T10:15:09.461Z,49.15
2023-05-05T10:17:44.004Z,49.12
2023-05-05T10:20:19.704Z,48.80
2023-05-05T10:22:55.109Z,49.14
2023-05-05T10:25:31.674Z,48.45
2023-05-05T10:28:00.776Z,47.68
2023-05-05T10:30:33.038Z,48.49
2023-05-05T10:33:30.298Z,48.27
2023-05-05T10:36:01.401Z,48.15
2023-05-05T10:38:31.459Z,48.70
2023-05-05T10:41:02.866Z,48.69
2023-05-05T10:43:31.762Z,47.63
2023-05-05T10:46:00.848Z,47.26
2023-05-05T10:48:35.792Z,47.46
2023-05-05T10:51:27.448Z,48.36
2023-05-05T10:54:10.685Z,48.47
2023-05-05T10:56:40.932Z,48.17
2023-05-05T10:59:43.350Z,48.11
2023-05-05T11:02:21.577Z,48.15
2023-05-05T11:05:05.050Z,47.57
2023-05-05T11:07:34.731Z,47.65
2023-05-05T11:10:07.130Z,47.14
2023-05-05T11:12:54.541Z,48.01
2023-05-05T11:15:31.934Z,48.25
2023-05-05T11:18:06.681Z,48.16
2023-05-05T11:20:45.633Z,46.85
2023-05-05T11:23:20.184Z,46.98
2023-05-05T11:30:12.790Z,47.59
2023-05-05T11:32:41.320Z,47.16
2023-05-05T11:35:10.055Z,47.17
2023-05-05T11:37:52.831Z,46.45
2023-05-05T11:40:24.247Z,47.24
2023-05-05T11:43:04.333Z,46.41
2023-05-05T11:45:32.992Z,46.41
2023-05-05T11:48:20.005Z,46.22
2023-05-05T11:50:49.590Z,46.51
2023-05-05T11:53:19.226Z,46.46
2023-05-05T11:55:47.730Z,46.88
2023-05-05T11:58:31.602Z,46.19
2023-05-05T12:01:00.322Z,45.32
2023-05-05T12:03:34.166Z,45.55
2023-05-05T12:06:03.356Z,45.52
2023-05-05T12:08:38.709Z,45.51
2023-05-05T12:11:08.018Z,44.06
2023-05-05T12:13:36.421Z,43.35
2023-05-05T12:16:17.489Z,43.35
2023-05-05T12:18:46.325Z,43.56
2023-05-05T12:21:18.530Z,43.01
2023-05-05T12:23:47.143Z,43.50
2023-05-05T12:26:31.267Z,44.25
2023-05-05T12:29:29.942Z,43.67
2023-05-05T12:32:14.227Z,43.34
2023-05-05T12:34:56.057Z,44.48
2023-05-05T12:41:23.907Z,45.65
2023-05-05T12:50:18.442Z,43.96
2023-05-05T12:52:55.680Z,44.11
2023-05-05T12:58:53.829Z,44.23
2023-05-05T13:01:36.687Z,43.95
2023-05-05T13:04:06.127Z,44.45
2023-05-05T13:06:38.833Z,44.40
2023-05-05T13:09:38.542Z,44.17
2023-05-05T13:12:24.468Z,42.68
2023-05-05T13:14:54.468Z,43.15
2023-05-05T13:17:23.497Z,43.08
2023-05-05T13:19:52.484Z,43.10
2023-05-05T13:22:20.658Z,43.40
2023-05-05T13:24:52.174Z,42.87
2023-05-05T13:27:21.281Z,42.29
2023-05-05T13:29:49.674Z,42.29
2023-05-05T13:32:18.224Z,41.68
2023-05-05T13:35:14.691Z,41.87
2023-05-05T13:37:49.157Z,41.99
2023-05-05T13:40:17.458Z,42.23
2023-05-05T13:42:59.941Z,42.99
2023-05-05T13:45:28.383Z,42.40
2023-05-05T13:47:57.513Z,42.25
2023-05-05T13:53:36.542Z,42.44
2023-05-05T13:56:05.488Z,42.47
2023-05-05T13:58:38.162Z,42.52
2023-05-05T14:01:07.331Z,41.69
2023-05-05T14:03:36.136Z,41.90
2023-05-05T14:06:05.773Z,42.60
2023-05-05T14:08:35.427Z,43.00
2023-05-05T14:11:08.645Z,43.06
2023-05-05T14:13:36.923Z,42.84
2023-05-05T14:16:05.416Z,41.27
2023-05-05T14:18:44.276Z,40.88
2023-05-05T14:21:12.567Z,40.71
2023-05-05T14:23:41.123Z,42.35
2023-05-05T14:26:09.814Z,42.45
2023-05-05T14:28:38.208Z,42.69
2023-05-05T14:31:06.660Z,41.64
2023-05-05T14:33:34.825Z,42.54
2023-05-05T14:36:02.985Z,41.65
2023-05-05T14:38:31.321Z,41.88
2023-05-05T14:40:59.887Z,42.48
2023-05-05T14:43:44.368Z,42.69
2023-05-05T14:46:46.860Z,43.36
2023-05-05T14:49:44.630Z,43.06
2023-05-05T14:52:34.819Z,42.95
2023-05-05T14:55:48.969Z,43.49
2023-05-05T14:58:37.918Z,44.23
2023-05-05T15:01:06.281Z,44.51
2023-05-05T15:04:48.529Z,45.19
2023-05-05T15:07:22.913Z,44.95
2023-05-05T15:09:53.181Z,45.56
2023-05-05T15:12:24.659Z,44.44
2023-05-05T15:15:10.586Z,43.47
2023-05-05T15:17:39.617Z,42.87
2023-05-05T15:20:08.356Z,43.43
2023-05-05T15:22:36.893Z,43.80
2023-05-05T15:25:09.254Z,43.84
2023-05-05T15:27:39.360Z,44.00
2023-05-05T15:30:08.473Z,43.75
2023-05-05T15:32:37.087Z,43.66
2023-05-05T15:35:06.428Z,43.85
2023-05-05T15:37:35.470Z,43.67
2023-05-05T15:40:05.802Z,43.23
2023-05-05T15:42:34.504Z,43.53
2023-05-05T15:45:03.648Z,43.85
2023-05-05T15:47:31.929Z,44.04
2023-05-05T15:50:02.294Z,44.10
2023-05-05T15:52:31.356Z,43.39
2023-05-05T15:55:00.116Z,43.72
2023-05-05T15:57:29.232Z,44.01
2023-05-05T15:59:57.787Z,44.20
2023-05-05T16:02:26.608Z,44.06
2023-05-05T16:04:55.125Z,43.98
2023-05-05T16:07:23.467Z,43.80
2023-05-05T16:09:51.920Z,44.12
2023-05-05T16:12:21.081Z,43.95
2023-05-05T16:14:49.862Z,44.16
2023-05-05T16:17:19.784Z,44.41
2023-05-05T16:19:48.819Z,44.43
2023-05-05T16:22:17.233Z,44.70
2023-05-05T16:24:45.614Z,44.43
2023-05-05T16:27:15.102Z,44.54
2023-05-05T16:29:43.441Z,45.42
2023-05-05T16:32:11.935Z,45.15
2023-05-05T16:34:40.165Z,45.11
2023-05-05T16:37:08.466Z,45.37
2023-05-05T16:39:40.386Z,45.40
2023-05-05T16:42:08.883Z,45.71
2023-05-05T16:44:37.191Z,46.00
2023-05-05T16:47:05.825Z,46.33
2023-05-05T16:49:36.841Z,46.09
2023-05-05T16:52:05.147Z,46.44
2023-05-05T16:54:33.480Z,46.02
2023-05-05T16:57:02.655Z,46.06
2023-05-05T16:59:31.709Z,46.63
2023-05-05T17:02:00.410Z,46.79
2023-05-05T17:04:28.984Z,46.11
2023-05-05T17:06:58.253Z,45.71
2023-05-05T17:09:27.602Z,45.70
2023-05-05T17:11:56.248Z,45.98
2023-05-05T17:14:24.712Z,46.38
2023-05-05T17:16:54.637Z,46.17
2023-05-05T17:19:23.085Z,46.10
2023-05-05T17:21:51.508Z,46.71
2023-05-05T17:24:19.748Z,46.82
2023-05-05T17:26:49.277Z,46.59
2023-05-05T17:29:21.905Z,46.36
2023-05-05T17:31:50.950Z,46.54
2023-05-05T17:34:19.311Z,46.91
2023-05-05T17:36:47.744Z,47.15
2023-05-05T17:39:16.150Z,47.87
2023-05-05T17:41:44.503Z,48.03
2023-05-05T17:44:12.821Z,48.04
2023-05-05T17:46:41.219Z,48.24
2023-05-05T17:49:09.560Z,48.00
2023-05-05T17:51:37.825Z,48.05
2023-05-05T17:54:06.353Z,48.10
2023-05-05T17:56:36.903Z,48.46
2023-05-05T17:59:05.328Z,48.63
2023-05-05T18:01:33.694Z,48.68
2023-05-05T18:04:01.986Z,48.32
2023-05-05T18:06:30.249Z,48.22
2023-05-05T18:08:58.541Z,48.01
2023-05-05T18:11:29.116Z,47.62
2023-05-05T18:13:57.513Z,47.72
2023-05-05T18:16:26.194Z,47.83
2023-05-05T18:18:54.534Z,47.72
2023-05-05T18:21:22.864Z,48.16
2023-05-05T18:23:51.447Z,48.19
2023-05-05T18:26:19.990Z,48.48
2023-05-05T18:28:48.467Z,48.48
2023-05-05T18:31:17.121Z,48.62
2023-05-05T18:33:46.835Z,48.74
2023-05-05T18:36:16.461Z,48.81
2023-05-05T18:38:44.868Z,48.64
2023-05-05T18:41:13.105Z,48.80
2023-05-05T18:43:41.527Z,49.08
2023-05-05T18:46:09.782Z,49.04
2023-05-05T18:48:38.098Z,49.05
2023-05-05T18:51:07.858Z,49.23
2023-05-05T18:53:45.783Z,49.39
2023-05-05T18:56:14.142Z,49.53
2023-05-05T18:59:14.038Z,49.57
2023-05-05T19:01:53.609Z,49.48
2023-05-05T19:04:31.239Z,49.70
2023-05-05T19:07:00.373Z,49.72
2023-05-05T19:09:29.177Z,49.84
2023-05-05T19:11:57.592Z,50.11
2023-05-05T19:14:28.248Z,50.39
2023-05-05T19:17:15.232Z,50.55
2023-05-05T19:19:52.234Z,50.78
2023-05-05T19:22:23.608Z,51.03
2023-05-05T19:28:02.372Z,51.41
2023-05-05T19:30:33.658Z,51.64
2023-05-05T19:33:13.850Z,51.63
2023-05-05T19:36:34.546Z,51.60
2023-05-05T19:39:14.533Z,51.95
2023-05-05T19:45:20.365Z,52.09
2023-05-05T19:48:27.543Z,51.98
2023-05-05T19:51:26.058Z,52.24
2023-05-05T19:54:14.917Z,52.13
2023-05-05T20:01:34.762Z,52.45
2023-05-05T20:04:31.699Z,52.25
2023-05-05T20:08:07.832Z,52.71
2023-05-05T20:49:38.658Z,52.68
2023-05-05T20:53:14.683Z,52.48
2023-05-05T20:57:33.003Z,52.81
2023-05-05T21:00:08.434Z,52.65
2023-05-05T21:02:41.190Z,53.12
2023-05-05T21:05:14.932Z,52.99
2023-05-05T21:07:43.263Z,53.02
2023-05-05T21:10:12.136Z,52.60
2023-05-05T21:13:23.515Z,52.41
2023-05-05T21:19:46.406Z,52.41
2023-05-05T21:22:14.827Z,52.75
2023-05-05T21:24:44.330Z,52.73
2023-05-05T21:27:18.051Z,52.74
2023-05-05T21:29:47.282Z,52.56
2023-05-05T21:32:15.590Z,52.62
2023-05-05T21:34:44.066Z,52.88
2023-05-05T21:37:12.362Z,52.93
2023-05-05T21:39:40.870Z,52.92
2023-05-05T21:42:16.595Z,52.90
2023-05-05T21:44:44.974Z,52.86
2023-05-05T21:47:16.450Z,52.88
2023-05-05T21:49:50.192Z,52.84
2023-05-05T21:52:28.265Z,52.71
2023-05-05T21:55:22.027Z,52.87
2023-05-05T21:57:50.484Z,52.95
2023-05-05T22:00:18.820Z,53.01
2023-05-05T22:02:47.124Z,53.19
2023-05-05T22:05:15.636Z,53.51
2023-05-05T22:07:43.899Z,53.73
2023-05-05T22:10:12.440Z,53.77
2023-05-05T22:12:41.309Z,53.87
2023-05-05T22:15:11.075Z,54.04
2023-05-05T22:17:39.678Z,54.25
2023-05-05T22:20:09.467Z,54.42
2023-05-05T22:22:37.842Z,54.55
2023-05-05T22:25:07.082Z,54.85
2023-05-05T22:27:35.413Z,54.88
2023-05-05T22:30:04.318Z,55.13
2023-05-05T22:32:32.705Z,55.30
2023-05-05T22:35:01.459Z,55.77
2023-05-05T22:37:29.697Z,55.51
2023-05-05T22:40:00.359Z,55.60
2023-05-05T22:42:29.983Z,55.91
2023-05-05T22:44:58.313Z,56.21
2023-05-05T22:47:26.690Z,56.09
2023-05-05T22:49:55.039Z,56.42
2023-05-05T22:52:25.858Z,56.50
2023-05-05T22:54:54.882Z,56.66
2023-05-05T22:57:23.290Z,56.92
2023-05-05T23:00:00.940Z,57.01
2023-05-05T23:02:29.623Z,57.21
2023-05-05T23:04:58.121Z,57.18
2023-05-05T23:07:26.521Z,57.55
2023-05-05T23:09:58.450Z,57.43
2023-05-05T23:12:26.726Z,57.69
2023-05-05T23:14:55.052Z,58.22
2023-05-05T23:17:23.851Z,57.92
2023-05-05T23:19:52.281Z,57.93
2023-05-05T23:22:20.591Z,58.38
2023-05-05T23:24:48.852Z,58.60
2023-05-05T23:27:17.121Z,58.36
2023-05-05T23:29:45.498Z,58.63
2023-05-05T23:32:13.817Z,58.81
2023-05-05T23:34:42.084Z,59.07
2023-05-05T23:37:10.515Z,59.36
2023-05-05T23:39:38.885Z,59.08
2023-05-05T23:42:07.144Z,59.32
2023-05-05T23:44:35.444Z,59.50
2023-05-05T23:47:03.723Z,59.62
2023-05-05T23:49:32.025Z,59.66
2023-05-05T23:52:00.883Z,59.76
2023-05-05T23:54:29.100Z,59.68
2023-05-05T23:56:57.465Z,59.88
2023-05-05T23:59:26.209Z,60.20
